Hutchinson County Airport - Borger, Texas, United States - FAA: BGD - ICAO: KBGD - IATA: BGD

 
  Longest Runway: 6,300 feet   Approach Types:    Customs Landing Rights Airport: No   Port of Entry: No

Local Forecast

Tonight (8/2): Scattered showers and thunderstorms. Mostly cloudy, with a low around 68. South wind around 10 mph. Chance of precipitation is 40%.

Monday (8/3): A 40 percent chance of showers and thunderstorms, mainly after 1pm. Mostly cloudy, with a high near 90. South wind 10 to 15 mph.

Monday Night (8/3): A 50 percent chance of showers and thunderstorms. Mostly cloudy, with a low around 69. South southeast wind 10 to 15 mph.

Tuesday (8/4): Mostly sunny, with a high near 95. South southwest wind around 10 mph.

Tuesday Night (8/4): Mostly clear, with a low around 70. South wind 5 to 10 mph.

Wednesday (8/5): Sunny and hot, with a high near 97. West southwest wind 5 to 10 mph becoming east in the afternoon.

Wednesday Night (8/5): Mostly clear, with a low around 73. South wind 5 to 10 mph.



Current Weather (METAR)

2015/08/02 23:51 KBGD 022351Z AUTO 18005KT 10SM SCT060 32/19 A2991 RMK AO2 LTG DSNT W SLP081 T03170189 10333 20306 56015

BORGER HUTCHINSON CO AIRPORT , TX, United States (KBGD) 35-42N 101-24W 927M Aug 02, 2015 - 07:51 PM EDT / 2015.08.02 2351 UTC Wind: from the S (180 degrees) at 6 MPH (5 KT):0 Visibility: 10 mile(s):0 Sky conditions: partly cloudy Weather: Lightning observed Temperature: 89.1 F (31.7 C) Dew Point: 66.0 F (18.9 C) Relative Humidity: 46% Pressure (altimeter): 29.91 in. Hg (1012 hPa) Pressure tendency: 0.04 inches (1.5 hPa) lower than three hours ago ob: KBGD 022351Z AUTO 18005KT 10SM SCT060 32/19 A2991 RMK AO2 LTG DSNT W SLP081 T03170189 10333 20306 56015 cycle: 0

Terminal Forecast (TAF)